createdAt,value
2022-09-17T00:01:17.284Z,97.40
2022-09-17T00:03:45.542Z,97.20
2022-09-17T00:06:13.170Z,97.30
2022-09-17T00:08:41.826Z,97.40
2022-09-17T00:11:12.247Z,97.50
2022-09-17T00:13:39.283Z,97.60
2022-09-17T00:16:07.168Z,97.90
2022-09-17T00:18:36.880Z,98.10
2022-09-17T00:21:04.490Z,98.40
2022-09-17T00:23:31.438Z,98.50
2022-09-17T00:25:59.376Z,98.80
2022-09-17T00:28:26.349Z,99.00
2022-09-17T00:30:53.330Z,99.50
2022-09-17T00:33:20.975Z,99.60
2022-09-17T00:36:00.342Z,99.70
2022-09-17T00:38:28.332Z,99.80
2022-09-17T00:40:55.915Z,99.90
2022-09-17T00:43:44.799Z,99.90
2022-09-17T00:46:40.331Z,99.90
2022-09-17T00:49:29.347Z,99.90
2022-09-17T00:52:05.950Z,99.90
2022-09-17T00:54:35.157Z,99.90
2022-09-17T00:57:02.931Z,99.90
2022-09-17T00:59:30.018Z,99.90
2022-09-17T01:01:57.057Z,99.90
2022-09-17T01:04:26.166Z,99.90
2022-09-17T01:07:23.107Z,99.90
2022-09-17T01:09:59.535Z,99.90
2022-09-17T01:12:45.141Z,99.90
2022-09-17T01:15:17.931Z,99.90
2022-09-17T01:18:09.227Z,99.90
2022-09-17T01:20:41.602Z,99.90
2022-09-17T01:23:17.769Z,99.90
2022-09-17T01:26:06.433Z,99.90
2022-09-17T01:29:09.362Z,99.90
2022-09-17T01:31:58.394Z,99.90
2022-09-17T01:34:56.579Z,99.90
2022-09-17T01:37:32.352Z,99.90
2022-09-17T01:40:08.710Z,99.90
2022-09-17T01:42:51.033Z,99.90
2022-09-17T01:45:44.964Z,99.90
2022-09-17T01:48:18.444Z,99.90
2022-09-17T01:51:00.991Z,99.90
2022-09-17T01:53:36.750Z,99.90
2022-09-17T01:56:06.377Z,99.90
2022-09-17T01:58:41.760Z,99.90
2022-09-17T02:01:12.309Z,99.90
2022-09-17T02:03:47.018Z,99.90
2022-09-17T02:06:19.160Z,99.90
2022-09-17T02:08:52.629Z,99.90
2022-09-17T02:11:20.408Z,99.90
2022-09-17T02:14:00.985Z,99.90
2022-09-17T02:16:30.501Z,99.90
2022-09-17T02:19:13.173Z,99.90
2022-09-17T02:22:07.562Z,99.90
2022-09-17T02:24:50.176Z,99.90
2022-09-17T02:27:28.140Z,99.90
2022-09-17T02:29:55.130Z,99.90
2022-09-17T02:32:22.062Z,99.90
2022-09-17T02:34:49.018Z,99.90
2022-09-17T02:37:16.033Z,99.90
2022-09-17T02:39:43.772Z,99.90
2022-09-17T02:42:15.914Z,99.90
2022-09-17T02:44:55.268Z,99.90
2022-09-17T02:47:28.101Z,99.90
2022-09-17T02:50:19.060Z,99.90
2022-09-17T02:52:52.145Z,99.90
2022-09-17T02:55:39.916Z,99.90
2022-09-17T02:58:45.275Z,99.90
2022-09-17T03:01:25.522Z,99.90
2022-09-17T03:03:56.353Z,99.90
2022-09-17T03:06:23.697Z,99.90
2022-09-17T03:08:51.049Z,99.90
2022-09-17T03:11:18.154Z,99.90
2022-09-17T03:13:45.331Z,99.90
2022-09-17T03:16:12.331Z,99.90
2022-09-17T03:18:39.361Z,99.90
2022-09-17T03:21:06.324Z,99.90
2022-09-17T03:23:33.268Z,99.90
2022-09-17T03:26:00.436Z,99.90
2022-09-17T03:28:27.367Z,99.90
2022-09-17T03:30:54.859Z,99.90
2022-09-17T03:33:21.950Z,99.90
2022-09-17T03:35:48.873Z,99.90
2022-09-17T03:38:16.600Z,99.90
2022-09-17T03:40:43.650Z,99.90
2022-09-17T03:43:10.683Z,99.90
2022-09-17T03:45:37.891Z,99.90
2022-09-17T03:48:04.842Z,99.90
2022-09-17T03:50:32.227Z,99.90
2022-09-17T03:52:59.233Z,99.90
2022-09-17T03:55:26.091Z,99.90
2022-09-17T03:57:53.075Z,99.90
2022-09-17T04:00:19.976Z,99.90
2022-09-17T04:02:47.005Z,99.90
2022-09-17T04:05:14.021Z,99.90
2022-09-17T04:07:41.337Z,99.90
2022-09-17T04:10:09.109Z,99.90
2022-09-17T04:12:36.617Z,99.90
2022-09-17T04:15:03.936Z,99.90
2022-09-17T04:17:30.957Z,99.90
2022-09-17T04:19:58.239Z,99.90
2022-09-17T04:22:25.800Z,99.90
2022-09-17T04:24:52.687Z,99.90
2022-09-17T04:27:19.610Z,99.90
2022-09-17T04:29:46.491Z,99.90
2022-09-17T04:32:13.380Z,99.90
2022-09-17T04:34:40.301Z,99.90
2022-09-17T04:37:07.322Z,99.90
2022-09-17T04:39:34.250Z,99.90
2022-09-17T04:42:01.128Z,99.90
2022-09-17T04:44:28.091Z,99.90
2022-09-17T04:46:55.123Z,99.90
2022-09-17T04:49:22.330Z,99.90
2022-09-17T04:51:49.229Z,99.90
2022-09-17T04:54:16.678Z,99.90
2022-09-17T04:56:43.560Z,99.90
2022-09-17T04:59:10.549Z,99.90
2022-09-17T05:01:37.677Z,99.90
2022-09-17T05:04:04.656Z,99.90
2022-09-17T05:06:31.536Z,99.90
2022-09-17T05:08:58.532Z,99.90
2022-09-17T05:11:25.490Z,99.90
2022-09-17T05:13:52.418Z,99.90
2022-09-17T05:16:19.687Z,99.90
2022-09-17T05:18:46.806Z,99.90
2022-09-17T05:21:14.307Z,99.90
2022-09-17T05:23:41.229Z,99.90
2022-09-17T05:26:08.255Z,99.90
2022-09-17T05:28:35.230Z,99.90
2022-09-17T05:31:03.188Z,99.90
2022-09-17T05:33:30.133Z,99.90
2022-09-17T05:35:57.056Z,99.90
2022-09-17T05:38:24.250Z,99.90
2022-09-17T05:40:51.115Z,99.90
2022-09-17T05:43:18.383Z,99.90
2022-09-17T05:45:45.454Z,99.90
2022-09-17T05:48:14.756Z,99.90
2022-09-17T05:50:42.115Z,99.90
2022-09-17T05:53:12.866Z,99.90
2022-09-17T05:55:40.558Z,99.90
2022-09-17T05:58:12.738Z,99.90
2022-09-17T06:00:41.785Z,99.90
2022-09-17T06:03:12.676Z,99.90
2022-09-17T06:05:40.127Z,99.90
2022-09-17T06:08:07.795Z,99.90
2022-09-17T06:10:38.811Z,99.90
2022-09-17T06:13:06.238Z,99.90
2022-09-17T06:15:33.171Z,99.90
2022-09-17T06:18:00.149Z,99.90
2022-09-17T06:20:27.108Z,99.90
2022-09-17T06:22:59.982Z,99.90
2022-09-17T06:25:26.880Z,99.90
2022-09-17T06:27:53.861Z,99.90
2022-09-17T06:30:20.770Z,99.90
2022-09-17T06:32:47.737Z,99.90
2022-09-17T06:35:14.765Z,99.90
2022-09-17T06:37:41.694Z,99.90
2022-09-17T06:40:09.402Z,99.90
2022-09-17T06:42:36.376Z,99.90
2022-09-17T06:45:08.589Z,99.90
2022-09-17T06:47:37.210Z,99.90
2022-09-17T06:50:04.354Z,99.90
2022-09-17T06:52:31.383Z,99.90
2022-09-17T06:54:58.234Z,99.90
2022-09-17T06:57:25.263Z,99.90
2022-09-17T06:59:52.208Z,99.90
2022-09-17T07:02:19.170Z,99.90
2022-09-17T07:04:46.106Z,99.90
2022-09-17T07:07:13.013Z,99.90
2022-09-17T07:09:39.972Z,99.90
2022-09-17T07:12:10.031Z,99.90
2022-09-17T07:14:37.033Z,99.90
2022-09-17T07:17:04.189Z,99.80
2022-09-17T07:19:31.111Z,99.80
2022-09-17T07:21:57.990Z,99.80
2022-09-17T07:24:26.646Z,99.70
2022-09-17T07:26:56.392Z,99.20
2022-09-17T07:29:26.337Z,99.20
2022-09-17T07:31:54.322Z,99.30
2022-09-17T07:34:21.736Z,99.20
2022-09-17T07:36:48.581Z,99.00
2022-09-17T07:39:15.572Z,99.60
2022-09-17T07:41:42.448Z,99.20
2022-09-17T07:44:09.924Z,99.00
2022-09-17T07:46:39.963Z,99.80
2022-09-17T07:49:07.016Z,99.10
2022-09-17T07:51:34.081Z,98.90
2022-09-17T07:54:02.396Z,99.30
2022-09-17T07:56:29.620Z,99.00
2022-09-17T07:58:56.745Z,98.80
2022-09-17T08:01:23.941Z,98.60
2022-09-17T08:03:53.841Z,98.60
2022-09-17T08:06:28.686Z,98.80
2022-09-17T08:08:56.651Z,98.60
2022-09-17T08:14:15.385Z,97.90
2022-09-17T08:16:42.995Z,97.90
2022-09-17T08:19:13.092Z,98.20
2022-09-17T08:21:40.036Z,97.80
2022-09-17T08:24:07.298Z,97.30
2022-09-17T08:26:34.277Z,97.50
2022-09-17T08:29:01.314Z,97.50
2022-09-17T08:31:30.260Z,96.70
2022-09-17T08:33:57.957Z,97.00
2022-09-17T08:36:26.338Z,97.10
2022-09-17T08:38:55.402Z,97.20
2022-09-17T08:41:34.317Z,96.10
2022-09-17T08:44:04.873Z,96.40
2022-09-17T08:46:37.523Z,95.60
2022-09-17T08:49:11.423Z,95.60
2022-09-17T08:52:14.142Z,95.30
2022-09-17T08:55:00.442Z,95.50
2022-09-17T08:57:41.030Z,95.90
2022-09-17T09:00:18.700Z,95.70
2022-09-17T09:03:11.650Z,95.70
2022-09-17T09:05:46.245Z,95.70
2022-09-17T09:08:18.753Z,95.50
2022-09-17T09:10:52.671Z,95.50
2022-09-17T09:13:23.324Z,94.60
2022-09-17T09:16:05.604Z,94.10
2022-09-17T09:18:37.056Z,94.20
2022-09-17T09:21:30.189Z,94.60
2022-09-17T09:23:59.364Z,93.40
2022-09-17T09:26:38.197Z,92.60
2022-09-17T09:29:38.285Z,92.70
2022-09-17T09:32:16.878Z,93.60
2022-09-17T09:34:45.714Z,94.10
2022-09-17T09:37:21.457Z,93.80
2022-09-17T09:39:51.345Z,93.40
2022-09-17T09:42:34.735Z,93.90
2022-09-17T09:45:37.285Z,93.50
2022-09-17T09:48:35.255Z,94.00
2022-09-17T09:51:30.498Z,94.40
2022-09-17T09:54:25.895Z,94.50
2022-09-17T09:57:00.062Z,98.20
2022-09-17T09:59:27.133Z,94.60
2022-09-17T10:01:54.144Z,95.10
2022-09-17T10:04:25.939Z,95.30
2022-09-17T10:07:14.482Z,91.90
2022-09-17T10:09:46.407Z,91.50
2022-09-17T10:12:13.508Z,91.60
2022-09-17T10:14:42.165Z,90.90
2022-09-17T10:17:24.648Z,90.80
2022-09-17T10:20:06.103Z,90.30
2022-09-17T10:22:34.116Z,89.40
2022-09-17T10:25:03.622Z,88.70
2022-09-17T10:27:31.185Z,88.90
2022-09-17T10:30:15.608Z,90.10
2022-09-17T10:32:42.841Z,87.20
2022-09-17T10:35:27.670Z,87.60
2022-09-17T10:37:55.238Z,90.00
2022-09-17T10:40:28.470Z,90.00
2022-09-17T10:43:16.358Z,89.00
2022-09-17T10:45:46.487Z,87.00
2022-09-17T10:48:20.505Z,82.60
2022-09-17T10:50:55.761Z,82.50
2022-09-17T10:53:24.559Z,80.30
2022-09-17T10:55:54.431Z,80.90
2022-09-17T10:58:43.623Z,81.60
2022-09-17T11:01:26.000Z,81.00
2022-09-17T11:04:21.989Z,80.70
2022-09-17T11:06:59.887Z,80.20
2022-09-17T11:09:36.127Z,82.90
2022-09-17T11:12:27.053Z,85.50
2022-09-17T11:15:33.776Z,82.30
2022-09-17T11:18:06.813Z,86.30
2022-09-17T11:21:11.064Z,87.50
2022-09-17T11:23:37.943Z,88.30
2022-09-17T11:26:20.465Z,89.50
2022-09-17T11:29:14.568Z,90.10
2022-09-17T11:32:10.282Z,91.00
2022-09-17T11:34:46.271Z,91.60
2022-09-17T11:37:26.130Z,90.40
2022-09-17T11:39:57.759Z,92.20
2022-09-17T11:42:33.792Z,91.10
2022-09-17T11:45:14.039Z,90.60
2022-09-17T11:47:49.550Z,90.10
2022-09-17T11:50:31.236Z,86.90
2022-09-17T11:53:18.455Z,87.40
2022-09-17T11:55:54.191Z,90.30
2022-09-17T11:58:43.795Z,89.60
2022-09-17T12:01:39.896Z,92.00
2022-09-17T12:04:53.104Z,88.20
2022-09-17T12:07:58.231Z,89.00
2022-09-17T12:11:01.116Z,91.30
2022-09-17T12:13:42.395Z,92.60
2022-09-17T12:16:20.392Z,91.60
2022-09-17T12:18:50.245Z,88.50
2022-09-17T12:21:42.236Z,87.50
2022-09-17T12:24:28.945Z,83.00
2022-09-17T12:27:05.695Z,86.40
2022-09-17T12:29:41.700Z,82.40
2022-09-17T12:32:43.482Z,82.70
2022-09-17T12:35:46.419Z,88.10
2022-09-17T12:38:32.049Z,86.70
2022-09-17T12:41:29.946Z,82.50
2022-09-17T12:44:06.065Z,87.60
2022-09-17T12:46:45.202Z,83.10
2022-09-17T12:49:43.827Z,83.90
2022-09-17T12:52:22.236Z,86.30
2022-09-17T12:54:51.983Z,81.20
2022-09-17T12:57:26.960Z,80.20
2022-09-17T13:00:01.802Z,79.80
2022-09-17T13:02:45.186Z,90.70
2022-09-17T13:05:49.420Z,94.40
2022-09-17T13:08:22.236Z,96.00
2022-09-17T13:11:26.132Z,96.30
2022-09-17T13:14:04.599Z,97.20
2022-09-17T13:16:43.808Z,97.00
2022-09-17T13:19:38.207Z,97.00
2022-09-17T13:22:19.155Z,97.40
2022-09-17T13:24:49.118Z,97.40
2022-09-17T13:27:26.981Z,98.30
2022-09-17T13:29:54.643Z,98.00
2022-09-17T13:32:36.523Z,98.10
2022-09-17T13:35:18.037Z,96.70
2022-09-17T13:37:53.950Z,95.90
2022-09-17T13:40:28.687Z,94.60
2022-09-17T13:43:06.294Z,94.90
2022-09-17T13:45:34.665Z,95.20
2022-09-17T13:48:05.624Z,94.00
2022-09-17T13:50:40.603Z,94.10
2022-09-17T13:53:16.595Z,94.20
2022-09-17T13:55:52.376Z,93.60
2022-09-17T13:58:19.437Z,94.00
2022-09-17T14:00:48.163Z,94.10
2022-09-17T14:03:48.632Z,94.00
2022-09-17T14:06:15.520Z,93.60
2022-09-17T14:08:45.526Z,93.50
2022-09-17T14:11:28.543Z,93.60
2022-09-17T14:13:58.239Z,93.10
2022-09-17T14:16:38.689Z,92.60
2022-09-17T14:19:19.745Z,92.20
2022-09-17T14:21:57.539Z,92.30
2022-09-17T14:24:30.229Z,92.50
2022-09-17T14:27:15.463Z,92.10
2022-09-17T14:30:01.268Z,92.50
2022-09-17T14:32:42.304Z,92.90
2022-09-17T14:35:24.183Z,92.30
2022-09-17T14:38:00.363Z,91.10
2022-09-17T14:40:28.448Z,91.20
2022-09-17T14:42:57.876Z,90.60
2022-09-17T14:45:44.121Z,90.10
2022-09-17T14:48:35.351Z,90.20
2022-09-17T14:51:20.210Z,90.60
2022-09-17T14:54:10.297Z,90.20
2022-09-17T14:56:53.219Z,89.50
2022-09-17T14:59:28.396Z,86.70
2022-09-17T15:01:55.646Z,84.80
2022-09-17T15:04:25.983Z,84.30
2022-09-17T15:06:53.347Z,84.40
2022-09-17T15:09:26.021Z,83.80
2022-09-17T15:11:59.976Z,83.60
2022-09-17T15:14:31.923Z,83.70
2022-09-17T15:17:02.088Z,82.00
2022-09-17T15:19:41.404Z,83.10
2022-09-17T15:22:30.934Z,83.30
2022-09-17T15:25:02.898Z,82.20
2022-09-17T15:27:39.560Z,81.60
2022-09-17T15:30:12.742Z,81.20
2022-09-17T15:32:48.592Z,82.20
2022-09-17T15:35:15.787Z,83.40
2022-09-17T15:38:11.482Z,83.60
2022-09-17T15:40:38.735Z,84.30
2022-09-17T15:43:20.911Z,86.10
2022-09-17T15:45:48.506Z,85.20
2022-09-17T15:48:34.575Z,85.60
2022-09-17T15:51:04.469Z,87.50
2022-09-17T15:53:33.519Z,87.30
2022-09-17T15:56:06.490Z,86.10
2022-09-17T15:58:38.211Z,84.80
2022-09-17T16:01:14.765Z,80.90
2022-09-17T16:03:44.533Z,79.20
2022-09-17T16:06:20.877Z,77.90
2022-09-17T16:08:57.756Z,77.30
2022-09-17T16:11:26.898Z,76.80
2022-09-17T16:13:56.235Z,75.90
2022-09-17T16:16:26.523Z,76.70
2022-09-17T16:18:53.387Z,76.50
2022-09-17T16:21:20.685Z,77.20
2022-09-17T16:23:47.969Z,77.50
2022-09-17T16:26:21.597Z,77.80
2022-09-17T16:28:53.798Z,77.00
2022-09-17T16:31:21.366Z,77.70
2022-09-17T16:33:48.431Z,78.30
2022-09-17T16:36:18.607Z,78.70
2022-09-17T16:38:45.531Z,79.70
2022-09-17T16:41:12.949Z,79.80
2022-09-17T16:43:40.416Z,79.50
2022-09-17T16:46:10.788Z,79.80
2022-09-17T16:48:38.703Z,80.10
2022-09-17T16:51:11.109Z,80.30
2022-09-17T16:53:38.537Z,80.60
2022-09-17T16:56:09.880Z,81.30
2022-09-17T16:58:37.411Z,81.90
2022-09-17T17:01:13.048Z,82.30
2022-09-17T17:03:41.093Z,82.90
2022-09-17T17:06:19.062Z,83.40
2022-09-17T17:08:46.164Z,84.00
2022-09-17T17:11:13.560Z,84.60
2022-09-17T17:13:43.172Z,84.60
2022-09-17T17:16:12.524Z,84.70
2022-09-17T17:18:42.176Z,85.10
2022-09-17T17:21:11.245Z,85.50
2022-09-17T17:23:38.847Z,85.90
2022-09-17T17:26:05.932Z,86.00
2022-09-17T17:28:35.114Z,86.50
2022-09-17T17:31:03.333Z,87.00
2022-09-17T17:33:30.540Z,87.10
2022-09-17T17:36:05.303Z,87.30
2022-09-17T17:38:34.872Z,87.50
2022-09-17T17:41:14.378Z,87.70
2022-09-17T17:43:42.247Z,88.40
2022-09-17T17:46:11.788Z,90.40
2022-09-17T17:48:39.388Z,95.40
2022-09-17T17:51:08.273Z,98.40
2022-09-17T17:53:36.092Z,99.90
2022-09-17T17:56:05.984Z,99.90
2022-09-17T17:58:34.355Z,99.90
2022-09-17T18:01:09.997Z,99.90
2022-09-17T18:03:36.982Z,99.90
2022-09-17T18:06:05.979Z,99.90
2022-09-17T18:08:35.123Z,99.90
2022-09-17T18:11:04.176Z,99.90
2022-09-17T18:13:31.763Z,99.90
2022-09-17T18:16:00.407Z,99.90
2022-09-17T18:18:33.321Z,99.90
2022-09-17T18:21:06.273Z,99.90
2022-09-17T18:23:45.108Z,99.90
2022-09-17T18:26:21.889Z,99.90
2022-09-17T18:28:54.459Z,99.90
2022-09-17T18:31:30.159Z,99.90
2022-09-17T18:34:05.651Z,99.90
2022-09-17T18:36:35.634Z,99.90
2022-09-17T18:39:33.157Z,99.90
2022-09-17T18:41:59.580Z,99.90
2022-09-17T18:44:30.152Z,99.90
2022-09-17T18:47:02.537Z,99.90
2022-09-17T18:49:30.709Z,99.90
2022-09-17T18:52:06.651Z,99.90
2022-09-17T18:54:44.508Z,99.90
2022-09-17T18:57:19.412Z,99.90
2022-09-17T18:59:47.622Z,99.50
2022-09-17T19:02:18.565Z,99.50
2022-09-17T19:04:57.279Z,99.90
2022-09-17T19:07:30.403Z,99.90
2022-09-17T19:10:04.266Z,98.90
2022-09-17T19:12:42.446Z,99.20
2022-09-17T19:15:19.178Z,99.00
2022-09-17T19:17:48.420Z,98.90
2022-09-17T19:20:32.606Z,98.80
2022-09-17T19:23:00.562Z,98.90
2022-09-17T19:25:28.261Z,99.00
2022-09-17T19:27:56.207Z,99.10
2022-09-17T19:30:24.475Z,98.80
2022-09-17T19:32:52.792Z,99.60
2022-09-17T19:35:24.074Z,98.70
2022-09-17T19:37:53.833Z,98.80
2022-09-17T19:40:24.996Z,98.50
2022-09-17T19:42:54.828Z,98.40
2022-09-17T19:45:27.061Z,98.40
2022-09-17T19:48:02.086Z,99.90
2022-09-17T19:50:30.438Z,98.60
2022-09-17T19:52:57.903Z,98.40
2022-09-17T19:55:25.869Z,98.00
2022-09-17T19:57:58.119Z,97.80
2022-09-17T20:00:26.529Z,97.90
2022-09-17T20:02:58.443Z,97.90
2022-09-17T20:05:28.488Z,97.80
2022-09-17T20:07:56.640Z,97.90
2022-09-17T20:10:24.944Z,98.00
2022-09-17T20:12:56.794Z,97.50
2022-09-17T20:15:27.845Z,97.50
2022-09-17T20:17:59.330Z,98.80
2022-09-17T20:20:30.535Z,97.60
2022-09-17T20:22:59.192Z,98.50
2022-09-17T20:25:30.145Z,97.30
2022-09-17T20:28:00.594Z,97.10
2022-09-17T20:30:32.780Z,97.00
2022-09-17T20:33:04.417Z,96.80
2022-09-17T20:35:35.785Z,96.80
2022-09-17T20:38:59.952Z,96.90
2022-09-17T20:41:07.892Z,97.00
2022-09-17T20:43:42.176Z,97.00
2022-09-17T20:46:12.047Z,96.80
2022-09-17T20:48:43.381Z,96.50
2022-09-17T20:51:25.565Z,96.70
2022-09-17T20:53:54.587Z,96.10
2022-09-17T20:56:30.280Z,96.00
2022-09-17T20:59:13.592Z,95.80
2022-09-17T21:01:48.277Z,95.90
2022-09-17T21:04:23.752Z,95.80
2022-09-17T21:07:10.980Z,95.70
2022-09-17T21:09:46.159Z,95.60
2022-09-17T21:12:17.320Z,95.80
2022-09-17T21:14:47.905Z,95.70
2022-09-17T21:17:16.592Z,95.60
2022-09-17T21:19:48.634Z,95.50
2022-09-17T21:22:20.036Z,95.70
2022-09-17T21:24:51.197Z,95.50
2022-09-17T21:27:19.612Z,95.30
2022-09-17T21:29:51.759Z,95.40
2022-09-17T21:32:20.983Z,95.10
2022-09-17T21:34:52.433Z,95.20
2022-09-17T21:37:21.045Z,95.30
2022-09-17T21:39:53.155Z,95.20
2022-09-17T21:42:22.014Z,95.10
2022-09-17T21:44:58.314Z,95.20
2022-09-17T21:47:25.547Z,95.10
2022-09-17T21:49:52.963Z,95.20
2022-09-17T21:52:20.252Z,95.10
2022-09-17T21:54:47.237Z,95.20
2022-09-17T21:57:14.102Z,95.30
2022-09-17T21:59:41.011Z,95.30
2022-09-17T22:02:08.491Z,95.30
2022-09-17T22:04:36.748Z,95.40
2022-09-17T22:07:04.099Z,95.60
2022-09-17T22:09:31.606Z,95.60
2022-09-17T22:12:00.995Z,95.60
2022-09-17T22:14:28.270Z,95.60
2022-09-17T22:16:57.200Z,95.70
2022-09-17T22:19:24.969Z,95.70
2022-09-17T22:21:53.829Z,95.70
2022-09-17T22:24:22.151Z,95.80
2022-09-17T22:26:55.965Z,95.90
2022-09-17T22:29:23.904Z,95.80
2022-09-17T22:31:51.090Z,95.80
2022-09-17T22:34:20.992Z,95.70
2022-09-17T22:36:48.496Z,95.80
2022-09-17T22:39:15.903Z,95.80
2022-09-17T22:41:45.394Z,95.80
2022-09-17T22:44:17.917Z,95.70
2022-09-17T22:46:46.907Z,95.70
2022-09-17T22:49:14.450Z,95.90
2022-09-17T22:51:42.391Z,96.00
2022-09-17T22:54:13.631Z,95.70
2022-09-17T22:56:41.693Z,95.90
2022-09-17T22:59:09.063Z,95.90
2022-09-17T23:01:37.324Z,96.10
2022-09-17T23:04:05.593Z,96.00
2022-09-17T23:06:35.762Z,95.90
2022-09-17T23:09:03.547Z,96.00
2022-09-17T23:11:38.865Z,96.10
2022-09-17T23:14:09.599Z,96.10
2022-09-17T23:16:42.056Z,95.90
2022-09-17T23:19:09.063Z,95.90
2022-09-17T23:21:36.834Z,95.80
2022-09-17T23:24:04.082Z,95.90
2022-09-17T23:26:31.469Z,96.00
2022-09-17T23:29:03.847Z,96.20
2022-09-17T23:31:31.730Z,95.80
2022-09-17T23:33:59.394Z,96.00
2022-09-17T23:36:29.143Z,96.00
2022-09-17T23:38:57.692Z,96.10
2022-09-17T23:41:26.029Z,96.20
2022-09-17T23:43:57.483Z,95.90
2022-09-17T23:46:26.753Z,95.80
2022-09-17T23:48:54.216Z,95.90
2022-09-17T23:51:22.553Z,95.80
2022-09-17T23:53:50.029Z,95.80
2022-09-17T23:56:22.793Z,95.80
2022-09-17T23:58:50.795Z,95.70
